(°C)
16°
16°
15°
15°
14°
14°
14°
(°C)
15°
15°
15°
14°
13°
12°
12°
ЗЮЗ
З
ЗСЗ
ЗСЗ
ЗСЗ
СЗ
СЗ
(km/h)
10-20
10-19
11-20
12-22
12-24
13-26
13-27
(mm)
0
0
0.2
6.1
1.3
0
0
(%)
30
49
79
63
68
45
31

Издигане на слънцето

/ -18.4°
sun-icon
UV 6
05:22
20:55
Пълнолуние (185°)
21:45
05:25

METAR за Хоф (EDQM)

Час Условия Температура/
Точка на оросяване
Вятър Видимост Времето Облаци Налягане Промяна Сурови
VFR 16°C / 14°C 230º 6kt >10km - Few Clouds 2400ft
Broken Clouds 8500ft
Broken Clouds 10000ft
1019 - EDQM 162120Z AUTO 23006KT 9999 // FEW024/// BKN085/// BKN100/// 16/14 Q1019
VFR 16°C / 14°C 260º variable 230º to 300º 6kt >10km - Few Clouds 2800ft
Broken Clouds 4400ft
Overcast 8800ft
1019 - EDQM 162050Z AUTO 26006KT 230V300 9999 // FEW028/// BKN044/// OVC088/// 16/14 Q1019
VFR 16°C / 14°C 260º variable 230º to 290º 6kt >10km - Few Clouds 3300ft
Scattered Clouds 4100ft
Broken Clouds 8800ft
1019 - EDQM 162020Z AUTO 26006KT 230V290 9999 // FEW033/// SCT041/// BKN088/// 16/14 Q1019
VFR 16°C / 14°C 260º variable 240º to 300º 6kt >10km - Few Clouds 3400ft
Broken Clouds 9300ft
1019 - EDQM 161950Z AUTO 26006KT 240V300 9999 // FEW034/// BKN093/// 16/14 Q1019
VFR 16°C / 14°C 260º 7kt >10km - Broken Clouds 10000ft
Broken Clouds 15000ft
1019 - EDQM 161920Z AUTO 26007KT 9999 // BKN100/// BKN150/// 16/14 Q1019
VFR 17°C / 14°C 260º 7kt >10km - Scattered Clouds 8400ft
Broken Clouds 15000ft
1018 - EDQM 161850Z AUTO 26007KT 9999 // SCT084/// BKN150/// 17/14 Q1018
VFR 17°C / 14°C 250º 8kt >10km - Broken Clouds 11000ft 1018 - EDQM 161820Z AUTO 25008KT 9999 // BKN110/// 17/14 Q1018
VFR 18°C / 13°C 200º 7kt >10km - Clouds and Visibility OK 1017 - EDQM 161750Z 20007KT CAVOK 18/13 Q1017
VFR 19°C / 13°C 220º variable 190º to 250º 7kt >10km - Few Clouds 3000ft
Scattered Clouds 6000ft
1017 - EDQM 161720Z 22007KT 190V250 9999 FEW030 SCT060CB 19/13 Q1017
VFR 20°C / 14°C 220º 8kt >10km - Few Clouds 3000ft
Scattered Clouds 6000ft
1017 - EDQM 161650Z 22008KT 9999 FEW030 SCT060CB 20/14 Q1017
VFR 20°C / 14°C 230º variable 190º to 260º 6kt >10km - Clouds and Visibility OK 1018 - EDQM 161620Z 23006KT 190V260 CAVOK 20/14 Q1018
VFR 21°C / 14°C 240º variable 200º to 270º 6kt >10km - Clouds and Visibility OK 1018 - EDQM 161550Z 24006KT 200V270 CAVOK 21/14 Q1018
VFR 20°C / 13°C 190º variable 120º to 240º 6kt >10km - Clouds and Visibility OK 1018 - EDQM 161520Z 19006KT 120V240 CAVOK 20/13 Q1018
VFR 17°C / 14°C 290º variable 250º to 340º 4kt >10km in the Vicinity Showers Vertical Visibility of 0ft. 1019 - EDQM 161320Z 29004KT 250V340 9999 VCSH FEW041 17/14 Q1019
VFR 19°C / 12°C 230º variable 200º to 260º 7kt >10km Light Showers Rain 3.00mm precipitation Vertical Visibility of 0ft. 1019 - EDQM 161250Z 23007KT 200V260 9999 -SHRA FEW038 19/12 Q1019
VFR 19°C / 14°C 240º variable 200º to 270º 7kt >10km - Clouds and Visibility OK 1019 - EDQM 161220Z 24007KT 200V270 CAVOK 19/14 Q1019
VFR 21°C / 10°C 220º variable 190º to 250º 12kt >10km - Clouds and Visibility OK 1019 - EDQM 161120Z 22012KT 190V250 CAVOK 21/10 Q1019
VFR 21°C / 9°C 210º variable 170º to 240º 8kt >10km - Clouds and Visibility OK 1019 - EDQM 161050Z 21008KT 170V240 CAVOK 21/09 Q1019
VFR 22°C / 10°C 200º variable 170º to 240º 8kt >10km - Clouds and Visibility OK 1019 - EDQM 161020Z 20008KT 170V240 CAVOK 22/10 Q1019
VFR 22°C / 9°C 170º variable 130º to 220º 8kt >10km - Clouds and Visibility OK 1019 - EDQM 160950Z 17008KT 130V220 CAVOK 22/09 Q1019
VFR 22°C / 11°C 160º 8kt >10km - Clouds and Visibility OK 1019 - EDQM 160920Z 16008KT CAVOK 22/11 Q1019
VFR 20°C / 10°C 130º variable 100º to 170º 6kt >10km - Clouds and Visibility OK 1019 - EDQM 160850Z 13006KT 100V170 CAVOK 20/10 Q1019
VFR 20°C / 10°C 140º variable 090º to 190º 5kt >10km - Clouds and Visibility OK 1019 - EDQM 160820Z 14005KT 090V190 CAVOK 20/10 Q1019
VFR 19°C / 10°C 150º variable 110º to 190º 5kt >10km - Clouds and Visibility OK 1019 - EDQM 160750Z 15005KT 110V190 CAVOK 19/10 Q1019

VFR

16°C / 14°C

[Още]
Вятър 230º 6kt
Видимост >10km
Времето -
Облаци Few Clouds 2400ft
Broken Clouds 8500ft
Broken Clouds 10000ft
Налягане 1019
Промяна -
Сурови EDQM 162120Z AUTO 23006KT 9999 // FEW024/// BKN085/// BKN100/// 16/14 Q1019

VFR

16°C / 14°C

[Още]
Вятър 260º variable 230º to 300º 6kt
Видимост >10km
Времето -
Облаци Few Clouds 2800ft
Broken Clouds 4400ft
Overcast 8800ft
Налягане 1019
Промяна -
Сурови EDQM 162050Z AUTO 26006KT 230V300 9999 // FEW028/// BKN044/// OVC088/// 16/14 Q1019

VFR

16°C / 14°C

[Още]
Вятър 260º variable 230º to 290º 6kt
Видимост >10km
Времето -
Облаци Few Clouds 3300ft
Scattered Clouds 4100ft
Broken Clouds 8800ft
Налягане 1019
Промяна -
Сурови EDQM 162020Z AUTO 26006KT 230V290 9999 // FEW033/// SCT041/// BKN088/// 16/14 Q1019

VFR

16°C / 14°C

[Още]
Вятър 260º variable 240º to 300º 6kt
Видимост >10km
Времето -
Облаци Few Clouds 3400ft
Broken Clouds 9300ft
Налягане 1019
Промяна -
Сурови EDQM 161950Z AUTO 26006KT 240V300 9999 // FEW034/// BKN093/// 16/14 Q1019

VFR

16°C / 14°C

[Още]
Вятър 260º 7kt
Видимост >10km
Времето -
Облаци Broken Clouds 10000ft
Broken Clouds 15000ft
Налягане 1019
Промяна -
Сурови EDQM 161920Z AUTO 26007KT 9999 // BKN100/// BKN150/// 16/14 Q1019

VFR

17°C / 14°C

[Още]
Вятър 260º 7kt
Видимост >10km
Времето -
Облаци Scattered Clouds 8400ft
Broken Clouds 15000ft
Налягане 1018
Промяна -
Сурови EDQM 161850Z AUTO 26007KT 9999 // SCT084/// BKN150/// 17/14 Q1018

VFR

17°C / 14°C

[Още]
Вятър 250º 8kt
Видимост >10km
Времето -
Облаци Broken Clouds 11000ft
Налягане 1018
Промяна -
Сурови EDQM 161820Z AUTO 25008KT 9999 // BKN110/// 17/14 Q1018

VFR

18°C / 13°C

[Още]
Вятър 200º 7kt
Видимост >10km
Времето -
Облаци Clouds and Visibility OK
Налягане 1017
Промяна -
Сурови EDQM 161750Z 20007KT CAVOK 18/13 Q1017

VFR

19°C / 13°C

[Още]
Вятър 220º variable 190º to 250º 7kt
Видимост >10km
Времето -
Облаци Few Clouds 3000ft
Scattered Clouds 6000ft
Налягане 1017
Промяна -
Сурови EDQM 161720Z 22007KT 190V250 9999 FEW030 SCT060CB 19/13 Q1017

VFR

20°C / 14°C

[Още]
Вятър 220º 8kt
Видимост >10km
Времето -
Облаци Few Clouds 3000ft
Scattered Clouds 6000ft
Налягане 1017
Промяна -
Сурови EDQM 161650Z 22008KT 9999 FEW030 SCT060CB 20/14 Q1017

VFR

20°C / 14°C

[Още]
Вятър 230º variable 190º to 260º 6kt
Видимост >10km
Времето -
Облаци Clouds and Visibility OK
Налягане 1018
Промяна -
Сурови EDQM 161620Z 23006KT 190V260 CAVOK 20/14 Q1018

VFR

21°C / 14°C

[Още]
Вятър 240º variable 200º to 270º 6kt
Видимост >10km
Времето -
Облаци Clouds and Visibility OK
Налягане 1018
Промяна -
Сурови EDQM 161550Z 24006KT 200V270 CAVOK 21/14 Q1018

VFR

20°C / 13°C

[Още]
Вятър 190º variable 120º to 240º 6kt
Видимост >10km
Времето -
Облаци Clouds and Visibility OK
Налягане 1018
Промяна -
Сурови EDQM 161520Z 19006KT 120V240 CAVOK 20/13 Q1018

VFR

17°C / 14°C

[Още]
Вятър 290º variable 250º to 340º 4kt
Видимост >10km
Времето in the Vicinity Showers
Облаци Vertical Visibility of 0ft.
Налягане 1019
Промяна -
Сурови EDQM 161320Z 29004KT 250V340 9999 VCSH FEW041 17/14 Q1019

VFR

19°C / 12°C

[Още]
Вятър 230º variable 200º to 260º 7kt
Видимост >10km
Времето Light Showers Rain 3.00mm precipitation
Облаци Vertical Visibility of 0ft.
Налягане 1019
Промяна -
Сурови EDQM 161250Z 23007KT 200V260 9999 -SHRA FEW038 19/12 Q1019

VFR

19°C / 14°C

[Още]
Вятър 240º variable 200º to 270º 7kt
Видимост >10km
Времето -
Облаци Clouds and Visibility OK
Налягане 1019
Промяна -
Сурови EDQM 161220Z 24007KT 200V270 CAVOK 19/14 Q1019

VFR

21°C / 10°C

[Още]
Вятър 220º variable 190º to 250º 12kt
Видимост >10km
Времето -
Облаци Clouds and Visibility OK
Налягане 1019
Промяна -
Сурови EDQM 161120Z 22012KT 190V250 CAVOK 21/10 Q1019

VFR

21°C / 9°C

[Още]
Вятър 210º variable 170º to 240º 8kt
Видимост >10km
Времето -
Облаци Clouds and Visibility OK
Налягане 1019
Промяна -
Сурови EDQM 161050Z 21008KT 170V240 CAVOK 21/09 Q1019

VFR

22°C / 10°C

[Още]
Вятър 200º variable 170º to 240º 8kt
Видимост >10km
Времето -
Облаци Clouds and Visibility OK
Налягане 1019
Промяна -
Сурови EDQM 161020Z 20008KT 170V240 CAVOK 22/10 Q1019

VFR

22°C / 9°C

[Още]
Вятър 170º variable 130º to 220º 8kt
Видимост >10km
Времето -
Облаци Clouds and Visibility OK
Налягане 1019
Промяна -
Сурови EDQM 160950Z 17008KT 130V220 CAVOK 22/09 Q1019

VFR

22°C / 11°C

[Още]
Вятър 160º 8kt
Видимост >10km
Времето -
Облаци Clouds and Visibility OK
Налягане 1019
Промяна -
Сурови EDQM 160920Z 16008KT CAVOK 22/11 Q1019

VFR

20°C / 10°C

[Още]
Вятър 130º variable 100º to 170º 6kt
Видимост >10km
Времето -
Облаци Clouds and Visibility OK
Налягане 1019
Промяна -
Сурови EDQM 160850Z 13006KT 100V170 CAVOK 20/10 Q1019

VFR

20°C / 10°C

[Още]
Вятър 140º variable 090º to 190º 5kt
Видимост >10km
Времето -
Облаци Clouds and Visibility OK
Налягане 1019
Промяна -
Сурови EDQM 160820Z 14005KT 090V190 CAVOK 20/10 Q1019

VFR

19°C / 10°C

[Още]
Вятър 150º variable 110º to 190º 5kt
Видимост >10km
Времето -
Облаци Clouds and Visibility OK
Налягане 1019
Промяна -
Сурови EDQM 160750Z 15005KT 110V190 CAVOK 19/10 Q1019

TAF за Хоф (EDQM)

From till


From till Wind 250º 6kt. Visibility 10km or more. Few Clouds 1200ft. Scattered Clouds 4000ft.
With 40% probability, Temporarly from till Wind 270º 20kt. Gust 35kt. Thunderstorm Rain . Broken Clouds 1200ft. Broken Clouds 3000ft.
With 30% probability, Temporarly from till Showers Rain . Broken Clouds 800ft. Scattered Clouds 1500ft.
Becoming from till Wind 310º 6kt. Visibility 10km or more. Few Clouds 1200ft. Scattered Clouds 4000ft.

Сурови: TAF EDQM 161700Z 1618/1703 25006KT 9999 FEW012 SCT040 PROB40 TEMPO 1618/1620 27020G35KT TSRA BKN012 BKN030CB PROB30 TEMPO 1620/1703 SHRA BKN008 SCT015CB BECMG 1622/1624 31006KT

rainNOW: Дъжд в момента за Хоф и околности (радиус 25 км)

0.0 mm
0.1 mm
0.0 mm
0.0 mm
0.0 mm
0.1 mm
0.2 mm
0.0 mm
0.0 mm
0.0 mm
0.0 mm
0.3 mm

Радар за Хоф

Ситен дъжд
Лек
Умерен
Тежък
Много тежък
Аве

Маркерът за локация обозначава Хоф. Анимацията показва Радара за валежи за последния час, както и прогноза за 2h. Дъждът или лекият сняг може да са невидими за радара. Интензивността на валежите е обозначена с цветни кодове, вариращи от светлосиньо до оранжево.
Copyright 2022 Deutscher Wetterdienst / meteoblue.

Актуални сателитни и дъждовни снимки за Хоф, Германия

Маркерът за локация е поставен върху Хоф. [Още]

Сателитното изображение в реално време съчетава видимата светлина през деня с инфрачервеното лъчение през нощта. През нощта изображението не е тъмно, тъй като инфрачервеното лъчение може да открива температурни разлики. За съжаление ниските облаци и мъглата са трудни за разграничаване от температурите на земята и затова могат да бъдат почти невидими през нощта. Сателитните изображения на Meteosat за Европа се актуализират в реално време на всеки 5 минути. Изображенията GOES-16/GOES-17 (Северна и Южна Америка) и Химавари (Азия) се актуализират на всеки 10 минути.

Валежите се изчисляват на база информация от радари и сателити. Нощните прогнози за валежи от сателити са с по-ниска прецизност от дневните прогнози. Оранжевите кръстове маркират локациите, на които са засечени светкавици (над Европа).

Всички права запазени 2022 EUMETSAT / meteoblue. Данни за светкавици, предоставени от nowcast.

Върнете се в началото